sensor_id;sensor_type;location;lat;lon;timestamp;temperature;humidity
49855;DHT22;35752;52.164;21.244;2022-07-17T00:00:46;12.80;99.90
49855;DHT22;35752;52.164;21.244;2022-07-17T00:03:14;12.80;99.90
49855;DHT22;35752;52.164;21.244;2022-07-17T00:05:40;12.80;99.90
49855;DHT22;35752;52.164;21.244;2022-07-17T00:08:07;12.70;99.90
49855;DHT22;35752;52.164;21.244;2022-07-17T00:10:34;12.70;99.90
49855;DHT22;35752;52.164;21.244;2022-07-17T00:13:00;12.70;99.90
49855;DHT22;35752;52.164;21.244;2022-07-17T00:15:26;12.70;99.90
49855;DHT22;35752;52.164;21.244;2022-07-17T00:17:52;12.70;99.90
49855;DHT22;35752;52.164;21.244;2022-07-17T00:20:17;12.60;99.90
49855;DHT22;35752;52.164;21.244;2022-07-17T00:22:43;12.60;99.90
49855;DHT22;35752;52.164;21.244;2022-07-17T00:25:09;12.60;99.90
49855;DHT22;35752;52.164;21.244;2022-07-17T00:27:36;12.60;99.90
49855;DHT22;35752;52.164;21.244;2022-07-17T00:30:03;12.60;99.90
49855;DHT22;35752;52.164;21.244;2022-07-17T00:32:29;12.60;99.90
49855;DHT22;35752;52.164;21.244;2022-07-17T00:34:55;12.60;99.90
49855;DHT22;35752;52.164;21.244;2022-07-17T00:37:21;12.60;99.90
49855;DHT22;35752;52.164;21.244;2022-07-17T00:39:47;12.60;99.90
49855;DHT22;35752;52.164;21.244;2022-07-17T00:42:13;12.60;99.90
49855;DHT22;35752;52.164;21.244;2022-07-17T00:44:40;12.60;99.90
49855;DHT22;35752;52.164;21.244;2022-07-17T00:47:13;12.60;99.90
49855;DHT22;35752;52.164;21.244;2022-07-17T00:49:39;12.60;99.90
49855;DHT22;35752;52.164;21.244;2022-07-17T00:52:06;12.70;99.90
49855;DHT22;35752;52.164;21.244;2022-07-17T00:54:35;12.70;99.90
49855;DHT22;35752;52.164;21.244;2022-07-17T00:57:02;12.70;99.90
49855;DHT22;35752;52.164;21.244;2022-07-17T00:59:32;12.70;99.90
49855;DHT22;35752;52.164;21.244;2022-07-17T01:01:59;12.60;99.90
49855;DHT22;35752;52.164;21.244;2022-07-17T01:04:24;12.60;99.90
49855;DHT22;35752;52.164;21.244;2022-07-17T01:06:50;12.60;99.90
49855;DHT22;35752;52.164;21.244;2022-07-17T01:09:16;12.70;99.90
49855;DHT22;35752;52.164;21.244;2022-07-17T01:11:42;12.60;99.90
49855;DHT22;35752;52.164;21.244;2022-07-17T01:14:08;12.60;99.90
49855;DHT22;35752;52.164;21.244;2022-07-17T01:16:34;12.60;99.90
49855;DHT22;35752;52.164;21.244;2022-07-17T01:19:00;12.60;99.90
49855;DHT22;35752;52.164;21.244;2022-07-17T01:21:40;12.50;99.90
49855;DHT22;35752;52.164;21.244;2022-07-17T01:24:06;12.50;99.90
49855;DHT22;35752;52.164;21.244;2022-07-17T01:26:32;12.50;99.90
49855;DHT22;35752;52.164;21.244;2022-07-17T01:28:57;12.50;99.90
49855;DHT22;35752;52.164;21.244;2022-07-17T01:31:23;12.60;99.90
49855;DHT22;35752;52.164;21.244;2022-07-17T01:33:49;12.60;99.90
49855;DHT22;35752;52.164;21.244;2022-07-17T01:36:15;12.60;99.90
49855;DHT22;35752;52.164;21.244;2022-07-17T01:38:41;12.60;99.90
49855;DHT22;35752;52.164;21.244;2022-07-17T01:41:06;12.50;99.90
49855;DHT22;35752;52.164;21.244;2022-07-17T01:43:32;12.50;99.90
49855;DHT22;35752;52.164;21.244;2022-07-17T01:45:58;12.40;99.90
49855;DHT22;35752;52.164;21.244;2022-07-17T01:48:25;12.30;99.90
49855;DHT22;35752;52.164;21.244;2022-07-17T01:50:51;12.30;99.90
49855;DHT22;35752;52.164;21.244;2022-07-17T01:53:17;12.20;99.90
49855;DHT22;35752;52.164;21.244;2022-07-17T01:55:42;12.20;99.90
49855;DHT22;35752;52.164;21.244;2022-07-17T01:58:09;12.20;99.90
49855;DHT22;35752;52.164;21.244;2022-07-17T02:00:34;12.10;99.90
49855;DHT22;35752;52.164;21.244;2022-07-17T02:03:00;12.10;99.90
49855;DHT22;35752;52.164;21.244;2022-07-17T02:05:26;12.10;99.90
49855;DHT22;35752;52.164;21.244;2022-07-17T02:07:52;12.10;99.90
49855;DHT22;35752;52.164;21.244;2022-07-17T02:10:17;12.10;99.90
49855;DHT22;35752;52.164;21.244;2022-07-17T02:12:44;12.00;99.90
49855;DHT22;35752;52.164;21.244;2022-07-17T02:15:10;12.00;99.90
49855;DHT22;35752;52.164;21.244;2022-07-17T02:17:36;12.00;99.90
49855;DHT22;35752;52.164;21.244;2022-07-17T02:20:02;12.00;99.90
49855;DHT22;35752;52.164;21.244;2022-07-17T02:22:28;12.00;99.90
49855;DHT22;35752;52.164;21.244;2022-07-17T02:24:53;12.10;99.90
49855;DHT22;35752;52.164;21.244;2022-07-17T02:27:19;12.10;99.90
49855;DHT22;35752;52.164;21.244;2022-07-17T02:29:45;12.10;99.90
49855;DHT22;35752;52.164;21.244;2022-07-17T02:32:10;12.10;99.90
49855;DHT22;35752;52.164;21.244;2022-07-17T02:34:36;12.10;99.90
49855;DHT22;35752;52.164;21.244;2022-07-17T02:37:02;12.00;99.90
49855;DHT22;35752;52.164;21.244;2022-07-17T02:39:27;12.10;99.90
49855;DHT22;35752;52.164;21.244;2022-07-17T02:41:53;12.10;99.90
49855;DHT22;35752;52.164;21.244;2022-07-17T02:44:19;12.10;99.90
49855;DHT22;35752;52.164;21.244;2022-07-17T02:46:45;12.10;99.90
49855;DHT22;35752;52.164;21.244;2022-07-17T02:49:10;12.10;99.90
49855;DHT22;35752;52.164;21.244;2022-07-17T02:51:36;12.10;99.90
49855;DHT22;35752;52.164;21.244;2022-07-17T02:54:02;12.10;99.90
49855;DHT22;35752;52.164;21.244;2022-07-17T02:56:27;12.20;99.90
49855;DHT22;35752;52.164;21.244;2022-07-17T02:58:53;12.20;99.90
49855;DHT22;35752;52.164;21.244;2022-07-17T03:01:19;12.20;99.90
49855;DHT22;35752;52.164;21.244;2022-07-17T03:03:44;12.30;99.90
49855;DHT22;35752;52.164;21.244;2022-07-17T03:06:10;12.30;99.90
49855;DHT22;35752;52.164;21.244;2022-07-17T03:08:36;12.40;99.90
49855;DHT22;35752;52.164;21.244;2022-07-17T03:11:02;12.40;99.90
49855;DHT22;35752;52.164;21.244;2022-07-17T03:13:27;12.40;99.90
49855;DHT22;35752;52.164;21.244;2022-07-17T03:15:54;12.50;99.90
49855;DHT22;35752;52.164;21.244;2022-07-17T03:18:19;12.50;99.90
49855;DHT22;35752;52.164;21.244;2022-07-17T03:20:45;12.50;99.90
49855;DHT22;35752;52.164;21.244;2022-07-17T03:23:11;12.60;99.90
49855;DHT22;35752;52.164;21.244;2022-07-17T03:25:36;12.50;99.90
49855;DHT22;35752;52.164;21.244;2022-07-17T03:28:02;12.60;99.90
49855;DHT22;35752;52.164;21.244;2022-07-17T03:30:28;12.60;99.90
49855;DHT22;35752;52.164;21.244;2022-07-17T03:32:54;12.60;99.90
49855;DHT22;35752;52.164;21.244;2022-07-17T03:35:19;12.60;99.90
49855;DHT22;35752;52.164;21.244;2022-07-17T03:37:45;12.60;99.90
49855;DHT22;35752;52.164;21.244;2022-07-17T03:40:11;12.70;99.90
49855;DHT22;35752;52.164;21.244;2022-07-17T03:42:37;12.70;99.90
49855;DHT22;35752;52.164;21.244;2022-07-17T03:45:03;12.80;99.90
49855;DHT22;35752;52.164;21.244;2022-07-17T03:47:29;12.80;99.90
49855;DHT22;35752;52.164;21.244;2022-07-17T03:49:55;12.90;99.90
49855;DHT22;35752;52.164;21.244;2022-07-17T03:52:20;12.90;99.90
49855;DHT22;35752;52.164;21.244;2022-07-17T03:54:46;12.90;99.90
49855;DHT22;35752;52.164;21.244;2022-07-17T03:57:12;12.90;99.90
49855;DHT22;35752;52.164;21.244;2022-07-17T03:59:37;12.90;99.90
49855;DHT22;35752;52.164;21.244;2022-07-17T04:02:03;13.00;99.90
49855;DHT22;35752;52.164;21.244;2022-07-17T04:04:29;13.10;99.90
49855;DHT22;35752;52.164;21.244;2022-07-17T04:06:54;13.20;99.90
49855;DHT22;35752;52.164;21.244;2022-07-17T04:09:20;13.20;99.90
49855;DHT22;35752;52.164;21.244;2022-07-17T04:11:46;13.20;99.90
49855;DHT22;35752;52.164;21.244;2022-07-17T04:14:12;13.30;99.90
49855;DHT22;35752;52.164;21.244;2022-07-17T04:16:37;13.30;99.90
49855;DHT22;35752;52.164;21.244;2022-07-17T04:19:03;13.30;99.90
49855;DHT22;35752;52.164;21.244;2022-07-17T04:21:29;13.40;99.90
49855;DHT22;35752;52.164;21.244;2022-07-17T04:23:54;13.40;99.90
49855;DHT22;35752;52.164;21.244;2022-07-17T04:26:20;13.30;99.90
49855;DHT22;35752;52.164;21.244;2022-07-17T04:28:46;13.30;99.90
49855;DHT22;35752;52.164;21.244;2022-07-17T04:31:12;13.30;99.90
49855;DHT22;35752;52.164;21.244;2022-07-17T04:33:37;13.30;99.90
49855;DHT22;35752;52.164;21.244;2022-07-17T04:36:03;13.30;99.90
49855;DHT22;35752;52.164;21.244;2022-07-17T04:38:29;13.30;99.90
49855;DHT22;35752;52.164;21.244;2022-07-17T04:40:55;13.30;99.90
49855;DHT22;35752;52.164;21.244;2022-07-17T04:43:20;13.30;99.90
49855;DHT22;35752;52.164;21.244;2022-07-17T04:45:46;13.30;99.90
49855;DHT22;35752;52.164;21.244;2022-07-17T04:48:12;13.40;99.90
49855;DHT22;35752;52.164;21.244;2022-07-17T04:50:37;13.50;99.90
49855;DHT22;35752;52.164;21.244;2022-07-17T04:53:03;13.50;99.90
49855;DHT22;35752;52.164;21.244;2022-07-17T04:55:29;13.50;99.90
49855;DHT22;35752;52.164;21.244;2022-07-17T04:57:55;13.60;99.90
49855;DHT22;35752;52.164;21.244;2022-07-17T05:00:20;13.60;99.90
49855;DHT22;35752;52.164;21.244;2022-07-17T05:02:47;13.60;99.90
49855;DHT22;35752;52.164;21.244;2022-07-17T05:05:12;13.60;99.90
49855;DHT22;35752;52.164;21.244;2022-07-17T05:07:38;13.60;99.90
49855;DHT22;35752;52.164;21.244;2022-07-17T05:10:05;13.50;99.90
49855;DHT22;35752;52.164;21.244;2022-07-17T05:12:31;13.60;99.90
49855;DHT22;35752;52.164;21.244;2022-07-17T05:14:56;13.60;99.90
49855;DHT22;35752;52.164;21.244;2022-07-17T05:17:23;13.60;99.90
49855;DHT22;35752;52.164;21.244;2022-07-17T05:19:48;13.70;99.90
49855;DHT22;35752;52.164;21.244;2022-07-17T05:22:14;13.70;99.90
49855;DHT22;35752;52.164;21.244;2022-07-17T05:24:40;13.80;99.90
49855;DHT22;35752;52.164;21.244;2022-07-17T05:27:06;13.90;99.90
49855;DHT22;35752;52.164;21.244;2022-07-17T05:29:31;14.00;99.90
49855;DHT22;35752;52.164;21.244;2022-07-17T05:31:57;14.00;99.90
49855;DHT22;35752;52.164;21.244;2022-07-17T05:34:23;13.90;99.90
49855;DHT22;35752;52.164;21.244;2022-07-17T05:36:48;13.90;99.90
49855;DHT22;35752;52.164;21.244;2022-07-17T05:39:14;14.00;99.90
49855;DHT22;35752;52.164;21.244;2022-07-17T05:41:40;14.10;99.90
49855;DHT22;35752;52.164;21.244;2022-07-17T05:44:06;14.30;99.90
49855;DHT22;35752;52.164;21.244;2022-07-17T05:46:31;14.40;99.90
49855;DHT22;35752;52.164;21.244;2022-07-17T05:48:57;14.50;99.90
49855;DHT22;35752;52.164;21.244;2022-07-17T05:51:23;14.60;99.90
49855;DHT22;35752;52.164;21.244;2022-07-17T05:53:49;14.70;99.90
49855;DHT22;35752;52.164;21.244;2022-07-17T05:56:14;14.80;99.90
49855;DHT22;35752;52.164;21.244;2022-07-17T05:58:40;14.80;99.90
49855;DHT22;35752;52.164;21.244;2022-07-17T06:01:06;14.90;99.90
49855;DHT22;35752;52.164;21.244;2022-07-17T06:03:31;15.00;99.90
49855;DHT22;35752;52.164;21.244;2022-07-17T06:05:57;15.10;99.90
49855;DHT22;35752;52.164;21.244;2022-07-17T06:08:23;15.20;99.90
49855;DHT22;35752;52.164;21.244;2022-07-17T06:10:48;15.30;99.90
49855;DHT22;35752;52.164;21.244;2022-07-17T06:13:14;15.50;99.90
49855;DHT22;35752;52.164;21.244;2022-07-17T06:15:40;15.60;99.90
49855;DHT22;35752;52.164;21.244;2022-07-17T06:18:06;15.70;99.90
49855;DHT22;35752;52.164;21.244;2022-07-17T06:20:31;15.80;99.90
49855;DHT22;35752;52.164;21.244;2022-07-17T06:22:57;15.90;99.90
49855;DHT22;35752;52.164;21.244;2022-07-17T06:25:23;15.90;99.90
49855;DHT22;35752;52.164;21.244;2022-07-17T06:27:49;16.00;99.90
49855;DHT22;35752;52.164;21.244;2022-07-17T06:30:15;16.00;99.90
49855;DHT22;35752;52.164;21.244;2022-07-17T06:32:42;16.10;99.90
49855;DHT22;35752;52.164;21.244;2022-07-17T06:35:08;16.20;99.90
49855;DHT22;35752;52.164;21.244;2022-07-17T06:37:35;16.40;99.90
49855;DHT22;35752;52.164;21.244;2022-07-17T06:40:01;16.50;99.90
49855;DHT22;35752;52.164;21.244;2022-07-17T06:42:27;16.70;99.90
49855;DHT22;35752;52.164;21.244;2022-07-17T06:44:53;16.70;99.90
49855;DHT22;35752;52.164;21.244;2022-07-17T06:47:18;16.70;99.90
49855;DHT22;35752;52.164;21.244;2022-07-17T06:49:44;16.60;99.90
49855;DHT22;35752;52.164;21.244;2022-07-17T06:52:10;16.70;99.90
49855;DHT22;35752;52.164;21.244;2022-07-17T06:54:36;16.70;99.90
49855;DHT22;35752;52.164;21.244;2022-07-17T06:57:01;16.70;99.90
49855;DHT22;35752;52.164;21.244;2022-07-17T06:59:27;16.70;99.90
49855;DHT22;35752;52.164;21.244;2022-07-17T07:01:53;16.80;99.90
49855;DHT22;35752;52.164;21.244;2022-07-17T07:04:19;16.90;99.90
49855;DHT22;35752;52.164;21.244;2022-07-17T07:06:45;16.90;99.90
49855;DHT22;35752;52.164;21.244;2022-07-17T07:09:10;17.00;99.90
49855;DHT22;35752;52.164;21.244;2022-07-17T07:11:39;17.10;99.90
49855;DHT22;35752;52.164;21.244;2022-07-17T07:14:06;17.00;99.90
49855;DHT22;35752;52.164;21.244;2022-07-17T07:16:33;16.90;99.90
49855;DHT22;35752;52.164;21.244;2022-07-17T07:18:58;16.80;99.90
49855;DHT22;35752;52.164;21.244;2022-07-17T07:21:24;17.00;99.90
49855;DHT22;35752;52.164;21.244;2022-07-17T07:23:52;17.10;99.90
49855;DHT22;35752;52.164;21.244;2022-07-17T07:26:18;17.10;99.90
49855;DHT22;35752;52.164;21.244;2022-07-17T07:28:43;17.30;99.90
49855;DHT22;35752;52.164;21.244;2022-07-17T07:31:09;17.30;99.90
49855;DHT22;35752;52.164;21.244;2022-07-17T07:33:36;17.10;99.90
49855;DHT22;35752;52.164;21.244;2022-07-17T07:36:02;17.30;99.90
49855;DHT22;35752;52.164;21.244;2022-07-17T07:38:28;17.20;99.90
49855;DHT22;35752;52.164;21.244;2022-07-17T07:40:54;17.40;99.90
49855;DHT22;35752;52.164;21.244;2022-07-17T07:43:20;17.40;99.90
49855;DHT22;35752;52.164;21.244;2022-07-17T07:45:46;17.60;99.90
49855;DHT22;35752;52.164;21.244;2022-07-17T07:48:12;17.80;99.90
49855;DHT22;35752;52.164;21.244;2022-07-17T07:50:37;18.10;99.90
49855;DHT22;35752;52.164;21.244;2022-07-17T07:53:03;18.30;99.90
49855;DHT22;35752;52.164;21.244;2022-07-17T07:55:29;18.20;99.90
49855;DHT22;35752;52.164;21.244;2022-07-17T07:58:05;18.50;99.90
49855;DHT22;35752;52.164;21.244;2022-07-17T08:00:31;18.40;99.90
49855;DHT22;35752;52.164;21.244;2022-07-17T08:02:57;18.20;99.90
49855;DHT22;35752;52.164;21.244;2022-07-17T08:05:23;18.20;99.90
49855;DHT22;35752;52.164;21.244;2022-07-17T08:07:48;18.30;99.90
49855;DHT22;35752;52.164;21.244;2022-07-17T08:10:14;18.10;99.90
49855;DHT22;35752;52.164;21.244;2022-07-17T08:12:40;18.20;99.90
49855;DHT22;35752;52.164;21.244;2022-07-17T08:15:06;18.00;99.90
49855;DHT22;35752;52.164;21.244;2022-07-17T08:17:32;18.00;99.90
49855;DHT22;35752;52.164;21.244;2022-07-17T08:19:57;18.10;99.90
49855;DHT22;35752;52.164;21.244;2022-07-17T08:22:23;18.30;99.90
49855;DHT22;35752;52.164;21.244;2022-07-17T08:24:49;18.50;99.90
49855;DHT22;35752;52.164;21.244;2022-07-17T08:27:14;18.50;99.90
49855;DHT22;35752;52.164;21.244;2022-07-17T08:29:40;18.40;99.90
49855;DHT22;35752;52.164;21.244;2022-07-17T08:32:06;18.60;99.90
49855;DHT22;35752;52.164;21.244;2022-07-17T08:34:32;18.70;99.90
49855;DHT22;35752;52.164;21.244;2022-07-17T08:36:57;19.00;99.90
49855;DHT22;35752;52.164;21.244;2022-07-17T08:39:23;19.00;99.90
49855;DHT22;35752;52.164;21.244;2022-07-17T08:41:49;18.90;99.90
49855;DHT22;35752;52.164;21.244;2022-07-17T08:44:15;19.00;99.90
49855;DHT22;35752;52.164;21.244;2022-07-17T08:46:41;19.10;99.90
49855;DHT22;35752;52.164;21.244;2022-07-17T08:49:07;19.40;99.90
49855;DHT22;35752;52.164;21.244;2022-07-17T08:51:34;19.40;99.90
49855;DHT22;35752;52.164;21.244;2022-07-17T08:54:00;19.50;99.90
49855;DHT22;35752;52.164;21.244;2022-07-17T08:56:26;19.60;99.90
49855;DHT22;35752;52.164;21.244;2022-07-17T08:58:52;19.60;99.90
49855;DHT22;35752;52.164;21.244;2022-07-17T09:01:19;19.60;99.90
49855;DHT22;35752;52.164;21.244;2022-07-17T09:04:01;19.50;99.90
49855;DHT22;35752;52.164;21.244;2022-07-17T09:06:32;19.40;99.90
49855;DHT22;35752;52.164;21.244;2022-07-17T09:09:07;19.20;99.90
49855;DHT22;35752;52.164;21.244;2022-07-17T09:11:48;19.20;99.90
49855;DHT22;35752;52.164;21.244;2022-07-17T09:14:16;19.20;99.90
49855;DHT22;35752;52.164;21.244;2022-07-17T09:19:39;19.00;99.90
49855;DHT22;35752;52.164;21.244;2022-07-17T09:22:21;19.30;99.90
49855;DHT22;35752;52.164;21.244;2022-07-17T09:27:32;19.60;99.90
49855;DHT22;35752;52.164;21.244;2022-07-17T09:30:05;19.90;99.90
49855;DHT22;35752;52.164;21.244;2022-07-17T09:32:34;20.10;99.90
49855;DHT22;35752;52.164;21.244;2022-07-17T09:35:02;20.20;99.90
49855;DHT22;35752;52.164;21.244;2022-07-17T09:37:29;20.20;99.90
49855;DHT22;35752;52.164;21.244;2022-07-17T09:39:56;20.40;99.90
49855;DHT22;35752;52.164;21.244;2022-07-17T09:42:31;20.20;99.90
49855;DHT22;35752;52.164;21.244;2022-07-17T09:45:08;20.00;99.90
49855;DHT22;35752;52.164;21.244;2022-07-17T09:47:37;20.00;99.90
49855;DHT22;35752;52.164;21.244;2022-07-17T09:50:04;20.10;99.90
49855;DHT22;35752;52.164;21.244;2022-07-17T09:52:34;20.10;99.90
49855;DHT22;35752;52.164;21.244;2022-07-17T09:55:01;20.00;99.90
49855;DHT22;35752;52.164;21.244;2022-07-17T09:57:33;19.80;99.90
49855;DHT22;35752;52.164;21.244;2022-07-17T10:00:06;19.70;99.90
49855;DHT22;35752;52.164;21.244;2022-07-17T10:02:33;19.50;99.90
49855;DHT22;35752;52.164;21.244;2022-07-17T10:04:59;19.50;99.90
49855;DHT22;35752;52.164;21.244;2022-07-17T10:07:25;19.50;99.90
49855;DHT22;35752;52.164;21.244;2022-07-17T10:09:51;19.50;99.90
49855;DHT22;35752;52.164;21.244;2022-07-17T10:12:18;19.60;99.90
49855;DHT22;35752;52.164;21.244;2022-07-17T10:14:47;19.60;99.90
49855;DHT22;35752;52.164;21.244;2022-07-17T10:17:14;19.80;99.90
49855;DHT22;35752;52.164;21.244;2022-07-17T10:19:50;20.10;99.90
49855;DHT22;35752;52.164;21.244;2022-07-17T10:22:16;20.10;99.90
49855;DHT22;35752;52.164;21.244;2022-07-17T10:24:53;20.10;99.90
49855;DHT22;35752;52.164;21.244;2022-07-17T10:27:27;20.00;99.90
49855;DHT22;35752;52.164;21.244;2022-07-17T10:30:06;20.00;99.90
49855;DHT22;35752;52.164;21.244;2022-07-17T10:32:33;19.90;99.90
49855;DHT22;35752;52.164;21.244;2022-07-17T10:45:13;20.40;99.90
49855;DHT22;35752;52.164;21.244;2022-07-17T10:47:55;20.60;99.90
49855;DHT22;35752;52.164;21.244;2022-07-17T10:55:42;20.30;99.90
49855;DHT22;35752;52.164;21.244;2022-07-17T10:58:35;20.30;99.90
49855;DHT22;35752;52.164;21.244;2022-07-17T11:01:04;20.30;99.90
49855;DHT22;35752;52.164;21.244;2022-07-17T11:03:45;20.40;99.90
49855;DHT22;35752;52.164;21.244;2022-07-17T11:06:25;20.70;99.90
49855;DHT22;35752;52.164;21.244;2022-07-17T11:11:49;20.70;99.60
49855;DHT22;35752;52.164;21.244;2022-07-17T11:16:55;20.40;99.90
49855;DHT22;35752;52.164;21.244;2022-07-17T11:21:51;20.20;99.90
49855;DHT22;35752;52.164;21.244;2022-07-17T11:24:18;20.00;99.90
49855;DHT22;35752;52.164;21.244;2022-07-17T11:26:44;19.90;99.90
49855;DHT22;35752;52.164;21.244;2022-07-17T11:29:11;20.00;99.90
49855;DHT22;35752;52.164;21.244;2022-07-17T11:31:37;19.90;99.90
49855;DHT22;35752;52.164;21.244;2022-07-17T11:34:05;20.00;99.90
49855;DHT22;35752;52.164;21.244;2022-07-17T11:36:37;19.90;99.90
49855;DHT22;35752;52.164;21.244;2022-07-17T11:39:11;19.90;99.90
49855;DHT22;35752;52.164;21.244;2022-07-17T11:41:42;19.90;99.90
49855;DHT22;35752;52.164;21.244;2022-07-17T11:44:13;20.00;99.90
49855;DHT22;35752;52.164;21.244;2022-07-17T11:46:45;20.00;99.90
49855;DHT22;35752;52.164;21.244;2022-07-17T11:49:12;20.10;99.90
49855;DHT22;35752;52.164;21.244;2022-07-17T11:51:48;20.30;99.90
49855;DHT22;35752;52.164;21.244;2022-07-17T11:54:15;20.60;99.90
49855;DHT22;35752;52.164;21.244;2022-07-17T11:56:43;20.70;99.90
49855;DHT22;35752;52.164;21.244;2022-07-17T11:59:27;21.00;99.90
49855;DHT22;35752;52.164;21.244;2022-07-17T12:01:54;21.30;98.80
49855;DHT22;35752;52.164;21.244;2022-07-17T12:04:20;21.30;99.30
49855;DHT22;35752;52.164;21.244;2022-07-17T12:06:57;21.20;99.90
49855;DHT22;35752;52.164;21.244;2022-07-17T12:09:33;21.00;99.00
49855;DHT22;35752;52.164;21.244;2022-07-17T12:12:02;20.80;99.90
49855;DHT22;35752;52.164;21.244;2022-07-17T12:14:29;20.60;99.90
49855;DHT22;35752;52.164;21.244;2022-07-17T12:17:03;20.60;99.90
49855;DHT22;35752;52.164;21.244;2022-07-17T12:19:29;20.70;99.90
49855;DHT22;35752;52.164;21.244;2022-07-17T12:22:01;20.60;99.90
49855;DHT22;35752;52.164;21.244;2022-07-17T12:24:37;20.60;99.90
49855;DHT22;35752;52.164;21.244;2022-07-17T12:27:06;20.60;99.90
49855;DHT22;35752;52.164;21.244;2022-07-17T12:29:32;20.70;99.90
49855;DHT22;35752;52.164;21.244;2022-07-17T12:32:09;20.90;99.90
49855;DHT22;35752;52.164;21.244;2022-07-17T12:34:37;21.30;99.90
49855;DHT22;35752;52.164;21.244;2022-07-17T12:37:04;21.60;99.90
49855;DHT22;35752;52.164;21.244;2022-07-17T12:39:30;21.90;95.40
49855;DHT22;35752;52.164;21.244;2022-07-17T12:41:57;22.10;92.40
49855;DHT22;35752;52.164;21.244;2022-07-17T12:44:22;22.40;92.30
49855;DHT22;35752;52.164;21.244;2022-07-17T12:46:48;22.50;87.40
49855;DHT22;35752;52.164;21.244;2022-07-17T12:49:14;22.60;88.80
49855;DHT22;35752;52.164;21.244;2022-07-17T12:51:40;22.70;84.40
49855;DHT22;35752;52.164;21.244;2022-07-17T12:54:06;22.60;82.70
49855;DHT22;35752;52.164;21.244;2022-07-17T12:56:32;22.50;85.20
49855;DHT22;35752;52.164;21.244;2022-07-17T12:58:58;22.30;83.30
49855;DHT22;35752;52.164;21.244;2022-07-17T13:01:24;22.20;83.20
49855;DHT22;35752;52.164;21.244;2022-07-17T13:03:50;22.00;80.70
49855;DHT22;35752;52.164;21.244;2022-07-17T13:06:15;21.90;80.80
49855;DHT22;35752;52.164;21.244;2022-07-17T13:08:41;21.70;81.00
49855;DHT22;35752;52.164;21.244;2022-07-17T13:11:07;21.60;85.00
49855;DHT22;35752;52.164;21.244;2022-07-17T13:13:33;21.50;82.60
49855;DHT22;35752;52.164;21.244;2022-07-17T13:15:58;21.40;82.30
49855;DHT22;35752;52.164;21.244;2022-07-17T13:18:24;21.50;81.90
49855;DHT22;35752;52.164;21.244;2022-07-17T13:20:50;21.70;84.20
49855;DHT22;35752;52.164;21.244;2022-07-17T13:23:17;21.80;86.00
49855;DHT22;35752;52.164;21.244;2022-07-17T13:25:42;22.00;85.40
49855;DHT22;35752;52.164;21.244;2022-07-17T13:28:09;22.10;81.30
49855;DHT22;35752;52.164;21.244;2022-07-17T13:30:35;22.10;78.20
49855;DHT22;35752;52.164;21.244;2022-07-17T13:33:01;22.20;76.70
49855;DHT22;35752;52.164;21.244;2022-07-17T13:35:27;22.30;76.60
49855;DHT22;35752;52.164;21.244;2022-07-17T13:37:53;22.50;75.80
49855;DHT22;35752;52.164;21.244;2022-07-17T13:40:19;22.70;76.30
49855;DHT22;35752;52.164;21.244;2022-07-17T13:42:46;22.80;75.00
49855;DHT22;35752;52.164;21.244;2022-07-17T13:45:12;22.80;75.00
49855;DHT22;35752;52.164;21.244;2022-07-17T13:47:38;22.90;72.60
49855;DHT22;35752;52.164;21.244;2022-07-17T13:50:05;22.80;72.70
49855;DHT22;35752;52.164;21.244;2022-07-17T13:52:31;22.70;66.90
49855;DHT22;35752;52.164;21.244;2022-07-17T13:54:57;22.70;65.80
49855;DHT22;35752;52.164;21.244;2022-07-17T13:57:23;22.70;67.00
49855;DHT22;35752;52.164;21.244;2022-07-17T13:59:49;22.60;67.40
49855;DHT22;35752;52.164;21.244;2022-07-17T14:02:15;22.30;68.00
49855;DHT22;35752;52.164;21.244;2022-07-17T14:04:41;22.10;69.30
49855;DHT22;35752;52.164;21.244;2022-07-17T14:07:07;21.80;73.60
49855;DHT22;35752;52.164;21.244;2022-07-17T14:09:33;21.60;76.50
49855;DHT22;35752;52.164;21.244;2022-07-17T14:11:59;21.40;79.50
49855;DHT22;35752;52.164;21.244;2022-07-17T14:14:24;21.20;81.30
49855;DHT22;35752;52.164;21.244;2022-07-17T14:16:50;21.20;85.30
49855;DHT22;35752;52.164;21.244;2022-07-17T14:19:16;21.10;86.20
49855;DHT22;35752;52.164;21.244;2022-07-17T14:21:42;21.20;89.90
49855;DHT22;35752;52.164;21.244;2022-07-17T14:24:08;21.10;89.20
49855;DHT22;35752;52.164;21.244;2022-07-17T14:26:34;21.00;90.00
49855;DHT22;35752;52.164;21.244;2022-07-17T14:29:01;21.10;91.00
49855;DHT22;35752;52.164;21.244;2022-07-17T14:31:28;21.00;91.20
49855;DHT22;35752;52.164;21.244;2022-07-17T14:33:54;21.10;92.30
49855;DHT22;35752;52.164;21.244;2022-07-17T14:36:20;21.10;91.90
49855;DHT22;35752;52.164;21.244;2022-07-17T14:38:46;21.00;93.30
49855;DHT22;35752;52.164;21.244;2022-07-17T14:41:11;21.00;93.70
49855;DHT22;35752;52.164;21.244;2022-07-17T14:43:37;21.00;96.50
49855;DHT22;35752;52.164;21.244;2022-07-17T14:46:03;21.00;94.80
49855;DHT22;35752;52.164;21.244;2022-07-17T14:48:30;21.00;96.40
49855;DHT22;35752;52.164;21.244;2022-07-17T14:50:56;21.10;97.50
49855;DHT22;35752;52.164;21.244;2022-07-17T14:53:22;21.10;99.50
49855;DHT22;35752;52.164;21.244;2022-07-17T14:55:48;21.10;98.80
49855;DHT22;35752;52.164;21.244;2022-07-17T14:58:13;21.20;98.00
49855;DHT22;35752;52.164;21.244;2022-07-17T15:00:39;21.30;98.70
49855;DHT22;35752;52.164;21.244;2022-07-17T15:03:05;21.30;98.30
49855;DHT22;35752;52.164;21.244;2022-07-17T15:05:31;21.20;98.10
49855;DHT22;35752;52.164;21.244;2022-07-17T15:07:57;21.10;98.50
49855;DHT22;35752;52.164;21.244;2022-07-17T15:10:23;21.00;97.60
49855;DHT22;35752;52.164;21.244;2022-07-17T15:12:48;20.90;98.40
49855;DHT22;35752;52.164;21.244;2022-07-17T15:15:14;21.00;99.10
49855;DHT22;35752;52.164;21.244;2022-07-17T15:17:40;21.10;99.90
49855;DHT22;35752;52.164;21.244;2022-07-17T15:20:06;21.20;99.90
49855;DHT22;35752;52.164;21.244;2022-07-17T15:22:32;21.20;98.90
49855;DHT22;35752;52.164;21.244;2022-07-17T15:24:59;21.30;98.40
49855;DHT22;35752;52.164;21.244;2022-07-17T15:27:24;21.20;94.70
49855;DHT22;35752;52.164;21.244;2022-07-17T15:29:50;21.20;97.70
49855;DHT22;35752;52.164;21.244;2022-07-17T15:32:16;21.20;96.50
49855;DHT22;35752;52.164;21.244;2022-07-17T15:34:41;21.30;98.40
49855;DHT22;35752;52.164;21.244;2022-07-17T15:37:07;21.20;96.00
49855;DHT22;35752;52.164;21.244;2022-07-17T15:39:33;21.20;97.60
49855;DHT22;35752;52.164;21.244;2022-07-17T15:41:59;21.30;98.00